createdAt,value
2022-11-20T00:00:21.061Z,15.40
2022-11-20T00:01:52.817Z,18.00
2022-11-20T00:03:24.673Z,16.15
2022-11-20T00:04:56.391Z,15.77
2022-11-20T00:06:29.166Z,15.43
2022-11-20T00:08:00.894Z,15.60
2022-11-20T00:09:32.633Z,16.17
2022-11-20T00:11:15.448Z,17.73
2022-11-20T00:12:47.935Z,17.10
2022-11-20T00:14:19.769Z,17.08
2022-11-20T00:15:58.290Z,16.08
2022-11-20T00:17:29.982Z,16.70
2022-11-20T00:19:02.154Z,16.33
2022-11-20T00:20:33.882Z,15.20
2022-11-20T00:22:05.575Z,16.67
2022-11-20T00:23:37.325Z,15.88
2022-11-20T00:25:09.249Z,17.88
2022-11-20T00:26:41.031Z,17.00
2022-11-20T00:28:13.603Z,16.13
2022-11-20T00:29:45.333Z,18.95
2022-11-20T00:31:17.863Z,19.08
2022-11-20T00:32:49.564Z,17.13
2022-11-20T00:34:21.288Z,16.63
2022-11-20T00:35:53.020Z,15.82
2022-11-20T00:37:24.770Z,15.13
2022-11-20T00:38:58.527Z,16.75
2022-11-20T00:40:30.319Z,15.63
2022-11-20T00:42:02.061Z,16.33
2022-11-20T00:43:34.369Z,15.32
2022-11-20T00:45:06.577Z,18.42
2022-11-20T00:46:38.367Z,18.38
2022-11-20T00:48:10.092Z,18.30
2022-11-20T00:49:41.817Z,17.15
2022-11-20T00:51:21.866Z,17.42
2022-11-20T00:52:53.573Z,17.45
2022-11-20T00:54:25.294Z,18.05
2022-11-20T00:55:59.673Z,18.02
2022-11-20T00:57:31.389Z,17.85
2022-11-20T00:59:03.602Z,20.10
2022-11-20T01:00:35.549Z,20.35
2022-11-20T01:02:07.335Z,17.65
2022-11-20T01:03:41.521Z,18.10
2022-11-20T01:05:13.289Z,19.20
2022-11-20T01:06:45.017Z,18.25
2022-11-20T01:08:16.737Z,18.25
2022-11-20T01:09:48.458Z,18.80
2022-11-20T01:11:23.698Z,18.35
2022-11-20T01:13:15.412Z,17.75
2022-11-20T01:14:48.499Z,16.65
2022-11-20T01:16:21.519Z,17.33
2022-11-20T01:17:53.211Z,15.35
2022-11-20T01:19:25.401Z,14.65
2022-11-20T01:21:02.050Z,19.63
2022-11-20T01:22:33.818Z,17.48
2022-11-20T01:24:08.925Z,16.55
2022-11-20T01:25:40.651Z,15.75
2022-11-20T01:27:12.374Z,15.25
2022-11-20T01:28:44.534Z,15.10
2022-11-20T01:30:16.392Z,15.02
2022-11-20T01:31:48.611Z,13.90
2022-11-20T01:33:20.325Z,15.30
2022-11-20T01:34:52.100Z,14.13
2022-11-20T01:36:25.930Z,14.73
2022-11-20T01:37:57.832Z,16.80
2022-11-20T01:39:29.704Z,16.58
2022-11-20T01:41:01.615Z,16.42
2022-11-20T01:42:52.237Z,15.10
2022-11-20T01:44:46.728Z,14.80
2022-11-20T01:46:20.172Z,15.27
2022-11-20T01:47:51.925Z,15.65
2022-11-20T01:49:40.228Z,16.88
2022-11-20T01:51:20.113Z,15.57
2022-11-20T01:53:04.929Z,18.90
2022-11-20T01:54:58.775Z,18.08
2022-11-20T01:56:34.599Z,19.27
2022-11-20T01:58:07.052Z,17.52
2022-11-20T01:59:45.720Z,20.50
2022-11-20T02:01:18.113Z,19.77
2022-11-20T02:02:54.968Z,16.20
2022-11-20T02:04:26.799Z,17.25
2022-11-20T02:06:30.726Z,18.52
2022-11-20T02:08:05.431Z,18.20
2022-11-20T02:09:37.173Z,17.08
2022-11-20T02:11:09.003Z,16.58
2022-11-20T02:12:59.232Z,16.85
2022-11-20T02:14:31.075Z,16.48
2022-11-20T02:16:04.257Z,14.32
2022-11-20T02:17:36.034Z,14.27
2022-11-20T02:19:14.822Z,14.88
2022-11-20T02:20:51.408Z,13.07
2022-11-20T02:22:34.768Z,14.55
2022-11-20T02:24:24.659Z,13.85
2022-11-20T02:25:58.769Z,13.55
2022-11-20T02:27:30.761Z,15.63
2022-11-20T02:29:04.278Z,15.65
2022-11-20T02:30:36.042Z,16.98
2022-11-20T02:32:07.795Z,13.95
2022-11-20T02:33:39.482Z,15.52
2022-11-20T02:35:20.478Z,16.05
2022-11-20T02:36:53.988Z,17.63
2022-11-20T02:38:25.785Z,16.02
2022-11-20T02:39:57.637Z,17.45
2022-11-20T02:41:37.952Z,18.58
2022-11-20T02:43:10.514Z,15.52
2022-11-20T02:44:42.303Z,16.42
2022-11-20T02:46:14.063Z,16.33
2022-11-20T02:47:45.800Z,15.68
2022-11-20T02:49:20.919Z,15.98
2022-11-20T02:50:52.905Z,15.35
2022-11-20T02:52:25.471Z,15.63
2022-11-20T02:53:57.257Z,20.05
2022-11-20T02:55:29.008Z,17.13
2022-11-20T02:57:00.725Z,14.52
2022-11-20T02:58:32.534Z,16.85
2022-11-20T03:00:05.615Z,16.65
2022-11-20T03:01:37.513Z,14.70
2022-11-20T03:03:09.358Z,15.13
2022-11-20T03:04:41.111Z,14.45
2022-11-20T03:06:12.914Z,14.30
2022-11-20T03:07:45.276Z,15.82
2022-11-20T03:09:17.011Z,14.45
2022-11-20T03:10:48.777Z,15.40
2022-11-20T03:12:20.541Z,14.48
2022-11-20T03:13:52.297Z,14.27
2022-11-20T03:15:24.958Z,14.18
2022-11-20T03:16:57.110Z,11.68
2022-11-20T03:18:29.904Z,15.05
2022-11-20T03:20:01.827Z,13.73
2022-11-20T03:21:36.652Z,17.27
2022-11-20T03:23:08.378Z,18.00
2022-11-20T03:24:40.130Z,17.02
2022-11-20T03:26:11.820Z,16.55
2022-11-20T03:27:43.544Z,17.55
2022-11-20T03:29:15.376Z,14.88
2022-11-20T03:30:47.141Z,15.45
2022-11-20T03:32:18.887Z,13.48
2022-11-20T03:33:51.206Z,15.25
2022-11-20T03:35:22.966Z,16.30
2022-11-20T03:36:54.701Z,15.02
2022-11-20T03:38:26.410Z,16.33
2022-11-20T03:39:58.137Z,18.27
2022-11-20T03:41:31.877Z,23.92
2022-11-20T03:43:03.638Z,21.60
2022-11-20T03:44:35.369Z,21.80
2022-11-20T03:46:08.223Z,21.15
2022-11-20T03:47:39.953Z,20.42
2022-11-20T03:49:11.710Z,22.38
2022-11-20T03:50:43.432Z,22.50
2022-11-20T03:52:15.160Z,22.23
2022-11-20T03:53:48.408Z,24.30
2022-11-20T03:55:20.195Z,23.13
2022-11-20T03:56:51.954Z,26.00
2022-11-20T03:58:23.668Z,24.83
2022-11-20T03:59:55.437Z,24.73
2022-11-20T04:01:30.544Z,25.13
2022-11-20T04:03:03.095Z,27.83
2022-11-20T04:04:34.877Z,27.00
2022-11-20T04:06:12.609Z,28.30
2022-11-20T04:07:44.339Z,29.35
2022-11-20T04:09:16.830Z,26.80
2022-11-20T04:10:48.705Z,30.33
2022-11-20T04:12:20.460Z,27.88
2022-11-20T04:13:54.683Z,23.27
2022-11-20T04:15:26.437Z,28.30
2022-11-20T04:16:58.176Z,25.35
2022-11-20T04:18:29.916Z,23.98
2022-11-20T04:20:01.976Z,27.25
2022-11-20T04:21:33.823Z,27.33
2022-11-20T04:23:05.540Z,23.02
2022-11-20T04:24:37.298Z,25.00
2022-11-20T04:26:10.976Z,24.38
2022-11-20T04:27:42.724Z,21.83
2022-11-20T04:29:14.523Z,24.45
2022-11-20T04:30:46.691Z,25.85
2022-11-20T04:32:18.531Z,22.25
2022-11-20T04:33:50.753Z,22.48
2022-11-20T04:35:22.511Z,22.05
2022-11-20T04:36:54.261Z,21.00
2022-11-20T04:38:26.088Z,22.45
2022-11-20T04:39:57.864Z,25.17
2022-11-20T04:41:32.534Z,28.50
2022-11-20T04:43:04.270Z,25.85
2022-11-20T04:44:36.030Z,26.92
2022-11-20T04:46:07.845Z,25.30
2022-11-20T04:47:39.588Z,29.88
2022-11-20T04:49:12.524Z,27.67
2022-11-20T04:50:44.340Z,27.42
2022-11-20T04:52:16.095Z,32.30
2022-11-20T04:53:47.867Z,30.40
2022-11-20T04:55:19.623Z,33.53
2022-11-20T04:56:51.520Z,30.27
2022-11-20T04:58:23.474Z,31.75
2022-11-20T04:59:55.217Z,31.52
2022-11-20T05:01:27.029Z,32.25
2022-11-20T05:02:58.821Z,32.80
2022-11-20T05:04:30.572Z,31.58
2022-11-20T05:06:03.438Z,30.63
2022-11-20T05:07:35.213Z,29.38
2022-11-20T05:09:07.049Z,32.10
2022-11-20T05:10:38.787Z,31.67
2022-11-20T05:12:10.553Z,33.55
2022-11-20T05:13:43.087Z,36.53
2022-11-20T05:15:15.003Z,33.47
2022-11-20T05:16:46.953Z,30.45
2022-11-20T05:18:18.687Z,34.50
2022-11-20T05:19:53.129Z,34.30
2022-11-20T05:21:25.056Z,34.53
2022-11-20T05:23:00.456Z,31.48
2022-11-20T05:24:32.181Z,33.78
2022-11-20T05:26:04.642Z,32.15
2022-11-20T05:27:36.364Z,34.15
2022-11-20T05:29:10.238Z,31.40
2022-11-20T05:30:42.047Z,31.45
2022-11-20T05:32:13.871Z,32.55
2022-11-20T05:33:46.261Z,32.42
2022-11-20T05:35:18.064Z,35.67
2022-11-20T05:36:49.775Z,34.53
2022-11-20T05:38:21.501Z,32.60
2022-11-20T05:39:53.575Z,32.60
2022-11-20T05:41:26.041Z,31.05
2022-11-20T05:42:57.816Z,31.75
2022-11-20T05:44:29.528Z,30.50
2022-11-20T05:46:01.751Z,30.92
2022-11-20T05:47:35.504Z,33.35
2022-11-20T05:49:07.203Z,30.33
2022-11-20T05:50:38.955Z,31.52
2022-11-20T05:52:10.799Z,33.08
2022-11-20T05:53:48.057Z,28.52
2022-11-20T05:55:20.417Z,28.77
2022-11-20T05:56:52.154Z,29.80
2022-11-20T05:58:23.886Z,34.10
2022-11-20T05:59:55.614Z,30.30
2022-11-20T06:01:27.566Z,28.73
2022-11-20T06:02:59.309Z,27.38
2022-11-20T06:04:31.157Z,29.88
2022-11-20T06:06:04.464Z,24.60
2022-11-20T06:07:36.275Z,22.65
2022-11-20T06:09:08.161Z,24.60
2022-11-20T06:10:39.896Z,23.08
2022-11-20T06:12:11.637Z,19.30
2022-11-20T06:13:43.567Z,21.00
2022-11-20T06:15:15.311Z,18.77
2022-11-20T06:16:47.031Z,18.90
2022-11-20T06:18:19.468Z,20.98
2022-11-20T06:19:51.230Z,20.15
2022-11-20T06:21:23.813Z,17.05
2022-11-20T06:22:55.535Z,20.17
2022-11-20T06:24:27.276Z,17.05
2022-11-20T06:26:02.689Z,16.58
2022-11-20T06:27:34.416Z,16.48
2022-11-20T06:29:06.192Z,17.00
2022-11-20T06:30:37.973Z,16.50
2022-11-20T06:32:09.785Z,16.55
2022-11-20T06:33:42.832Z,17.15
2022-11-20T06:35:14.595Z,20.40
2022-11-20T06:36:46.311Z,17.60
2022-11-20T06:38:18.111Z,17.50
2022-11-20T06:39:49.843Z,22.45
2022-11-20T06:41:22.581Z,23.17
2022-11-20T06:42:55.857Z,24.77
2022-11-20T06:44:27.641Z,22.02
2022-11-20T06:46:00.301Z,23.05
2022-11-20T06:47:32.030Z,24.77
2022-11-20T06:49:03.817Z,22.35
2022-11-20T06:50:35.596Z,22.48
2022-11-20T06:52:07.325Z,30.40
2022-11-20T06:53:39.522Z,26.80
2022-11-20T06:55:11.344Z,30.42
2022-11-20T06:56:43.076Z,30.88
2022-11-20T06:58:15.960Z,28.38
2022-11-20T06:59:47.720Z,30.60
2022-11-20T07:01:19.575Z,26.33
2022-11-20T07:02:51.429Z,30.90
2022-11-20T07:04:23.177Z,29.15
2022-11-20T07:05:59.003Z,31.58
2022-11-20T07:07:30.777Z,31.67
2022-11-20T07:09:02.910Z,31.80
2022-11-20T07:10:34.748Z,33.35
2022-11-20T07:12:06.758Z,33.45
2022-11-20T07:13:38.548Z,28.58
2022-11-20T07:15:10.469Z,27.75
2022-11-20T07:16:42.201Z,28.25
2022-11-20T07:18:13.954Z,27.58
2022-11-20T07:19:45.713Z,28.67
2022-11-20T07:21:17.488Z,31.83
2022-11-20T07:22:54.735Z,32.65
2022-11-20T07:24:26.477Z,32.33
2022-11-20T07:25:58.328Z,27.17
2022-11-20T07:27:30.507Z,27.10
2022-11-20T07:29:02.238Z,29.35
2022-11-20T07:30:33.972Z,30.35
2022-11-20T07:32:05.724Z,29.70
2022-11-20T07:33:37.465Z,27.83
2022-11-20T07:35:09.408Z,29.83
2022-11-20T07:36:41.157Z,30.27
2022-11-20T07:38:12.907Z,30.65
2022-11-20T07:39:44.870Z,30.02
2022-11-20T07:41:16.709Z,33.40
2022-11-20T07:42:54.060Z,31.05
2022-11-20T07:44:25.841Z,33.45
2022-11-20T07:45:58.856Z,30.73
2022-11-20T07:47:36.284Z,35.47
2022-11-20T07:49:08.008Z,31.55
2022-11-20T07:50:39.723Z,32.97
2022-11-20T07:52:11.461Z,31.27
2022-11-20T07:53:43.190Z,30.27
2022-11-20T07:55:15.367Z,30.83
2022-11-20T07:56:48.111Z,30.52
2022-11-20T07:58:21.155Z,30.08
2022-11-20T07:59:52.951Z,26.25
2022-11-20T08:01:24.784Z,27.98
2022-11-20T08:02:56.594Z,22.52
2022-11-20T08:04:28.387Z,27.35
2022-11-20T08:06:03.997Z,26.33
2022-11-20T08:07:39.984Z,29.08
2022-11-20T08:09:11.768Z,28.42
2022-11-20T08:10:43.575Z,26.60
2022-11-20T08:12:39.278Z,25.92
2022-11-20T08:14:13.595Z,27.90
2022-11-20T08:15:51.200Z,25.15
2022-11-20T08:17:22.966Z,28.90
2022-11-20T08:18:54.959Z,23.15
2022-11-20T08:20:26.706Z,22.92
2022-11-20T08:21:58.441Z,23.80
2022-11-20T08:23:30.172Z,20.15
2022-11-20T08:25:02.536Z,21.17
2022-11-20T08:26:35.956Z,21.13
2022-11-20T08:28:20.184Z,20.05
2022-11-20T08:29:52.853Z,19.83
2022-11-20T08:31:26.153Z,21.17
2022-11-20T08:33:03.309Z,19.67
2022-11-20T08:34:35.074Z,20.27
2022-11-20T08:36:07.537Z,23.75
2022-11-20T08:37:42.496Z,22.77
2022-11-20T08:39:15.059Z,21.13
2022-11-20T08:41:06.807Z,22.25
2022-11-20T08:42:38.650Z,21.08
2022-11-20T08:44:10.440Z,20.67
2022-11-20T08:45:42.186Z,20.30
2022-11-20T08:47:13.905Z,21.42
2022-11-20T08:48:46.174Z,18.25
2022-11-20T08:50:18.427Z,21.70
2022-11-20T08:51:52.811Z,22.35
2022-11-20T08:53:24.552Z,19.77
2022-11-20T08:54:56.296Z,18.52
2022-11-20T08:56:28.197Z,19.30
2022-11-20T08:58:04.623Z,18.90
2022-11-20T09:00:04.293Z,19.15
2022-11-20T09:03:02.100Z,16.20
2022-11-20T09:04:34.088Z,16.75
2022-11-20T09:06:08.184Z,18.50
2022-11-20T09:07:39.995Z,17.92
2022-11-20T09:09:11.809Z,18.08
2022-11-20T09:10:43.630Z,20.75
2022-11-20T09:12:15.397Z,21.63
2022-11-20T09:13:47.121Z,22.42
2022-11-20T09:15:19.443Z,23.95
2022-11-20T09:16:51.172Z,23.80
2022-11-20T09:18:23.911Z,22.90
2022-11-20T09:19:55.638Z,24.27
2022-11-20T09:21:27.489Z,27.95
2022-11-20T09:22:59.459Z,25.02
2022-11-20T09:24:31.197Z,25.77
2022-11-20T09:26:05.437Z,25.27
2022-11-20T09:27:37.165Z,22.63
2022-11-20T09:29:09.003Z,22.88
2022-11-20T09:30:40.874Z,23.23
2022-11-20T09:32:12.625Z,25.42
2022-11-20T09:33:44.378Z,24.60
2022-11-20T09:35:16.241Z,23.15
2022-11-20T09:36:48.044Z,28.40
2022-11-20T09:38:19.817Z,25.73
2022-11-20T09:39:51.609Z,27.80
2022-11-20T09:41:33.910Z,28.40
2022-11-20T09:43:20.005Z,22.10
2022-11-20T09:45:03.683Z,23.83
2022-11-20T09:46:53.801Z,21.13
2022-11-20T09:48:35.449Z,19.73
2022-11-20T09:50:32.167Z,20.27
2022-11-20T09:52:25.287Z,19.63
2022-11-20T09:54:12.014Z,21.23
2022-11-20T09:55:43.792Z,19.30
2022-11-20T09:57:37.936Z,21.70
2022-11-20T09:59:20.264Z,21.30
2022-11-20T10:00:57.448Z,19.48
2022-11-20T10:02:45.800Z,18.83
2022-11-20T10:04:20.792Z,20.20
2022-11-20T10:05:55.891Z,25.45
2022-11-20T10:07:37.498Z,24.15
2022-11-20T10:09:12.343Z,21.60
2022-11-20T10:11:14.855Z,23.60
2022-11-20T10:13:40.713Z,23.48
2022-11-20T10:15:37.215Z,21.33
2022-11-20T10:17:31.140Z,23.85
2022-11-20T10:19:30.538Z,22.38
2022-11-20T10:21:21.048Z,22.35
2022-11-20T10:23:08.211Z,22.92
2022-11-20T10:25:06.816Z,23.35
2022-11-20T10:26:52.046Z,22.63
2022-11-20T10:28:35.943Z,21.55
2022-11-20T10:30:14.348Z,22.35
2022-11-20T10:31:57.723Z,21.85
2022-11-20T10:33:50.131Z,22.70
2022-11-20T10:35:37.012Z,23.98
2022-11-20T10:37:23.364Z,25.05
2022-11-20T10:39:07.113Z,26.48
2022-11-20T10:40:44.228Z,23.00
2022-11-20T10:42:25.121Z,25.83
2022-11-20T10:44:10.895Z,26.35
2022-11-20T10:45:54.099Z,23.55
2022-11-20T10:47:27.046Z,24.48
2022-11-20T10:48:59.335Z,23.25
2022-11-20T10:50:32.117Z,25.65
2022-11-20T10:52:14.591Z,25.67
2022-11-20T10:53:56.996Z,26.33
2022-11-20T10:55:38.175Z,24.40
2022-11-20T10:57:51.827Z,21.83
2022-11-20T10:59:42.821Z,22.60
2022-11-20T11:01:15.933Z,15.18
2022-11-20T11:02:51.074Z,20.58
2022-11-20T11:04:34.620Z,18.92
2022-11-20T11:06:18.555Z,16.75
2022-11-20T11:07:54.316Z,16.48
2022-11-20T11:09:35.416Z,16.58
2022-11-20T11:11:19.827Z,16.05
2022-11-20T11:12:51.593Z,15.35
2022-11-20T11:14:25.645Z,15.18
2022-11-20T11:15:58.178Z,15.70
2022-11-20T11:17:30.061Z,17.02
2022-11-20T11:19:06.543Z,16.00
2022-11-20T11:20:39.387Z,17.38
2022-11-20T11:22:19.011Z,20.55
2022-11-20T11:24:19.614Z,19.55
2022-11-20T11:25:59.725Z,14.82
2022-11-20T11:27:31.537Z,15.88
2022-11-20T11:29:05.403Z,13.82
2022-11-20T11:30:45.078Z,13.07
2022-11-20T11:32:19.553Z,15.30
2022-11-20T11:33:51.310Z,14.65
2022-11-20T11:35:26.325Z,14.55
2022-11-20T11:37:00.769Z,15.40
2022-11-20T11:38:44.203Z,15.07
2022-11-20T11:40:25.763Z,16.80
2022-11-20T11:42:00.821Z,15.63
2022-11-20T11:43:53.263Z,16.10
2022-11-20T11:45:25.603Z,15.90
2022-11-20T11:46:58.906Z,17.13
2022-11-20T11:48:30.642Z,18.17
2022-11-20T11:50:11.268Z,20.02
2022-11-20T11:52:01.098Z,18.17
2022-11-20T11:53:39.130Z,20.20
2022-11-20T11:55:16.284Z,20.42
2022-11-20T11:56:48.079Z,22.40
2022-11-20T11:58:44.712Z,21.95
2022-11-20T12:00:22.741Z,20.70
2022-11-20T12:02:02.912Z,19.77
2022-11-20T12:03:38.732Z,20.50
2022-11-20T12:05:21.450Z,22.75
2022-11-20T12:07:06.106Z,18.15
2022-11-20T12:08:57.355Z,22.02
2022-11-20T12:10:38.042Z,19.65
2022-11-20T12:12:23.545Z,20.73
2022-11-20T12:13:59.605Z,20.50
2022-11-20T12:15:34.202Z,20.23
2022-11-20T12:17:06.183Z,21.05
2022-11-20T12:18:37.993Z,19.13
2022-11-20T12:20:14.676Z,18.83
2022-11-20T12:22:04.145Z,19.40
2022-11-20T12:24:17.692Z,20.63
2022-11-20T12:25:56.268Z,20.38
2022-11-20T12:27:57.188Z,18.55
2022-11-20T12:30:04.283Z,16.27
2022-11-20T12:31:36.082Z,20.08
2022-11-20T12:33:41.109Z,18.50
2022-11-20T12:35:43.063Z,20.73
2022-11-20T12:37:42.664Z,20.05
2022-11-20T12:39:36.713Z,19.42
2022-11-20T12:41:40.317Z,20.27
2022-11-20T12:43:44.326Z,20.27
2022-11-20T12:45:52.676Z,19.20
2022-11-20T12:47:50.221Z,17.25
2022-11-20T12:49:43.797Z,18.05
2022-11-20T12:51:16.276Z,17.42
2022-11-20T12:52:50.142Z,18.67
2022-11-20T12:54:40.149Z,18.90
2022-11-20T12:56:20.781Z,17.80
2022-11-20T12:58:01.207Z,16.88
2022-11-20T13:00:04.894Z,17.92
2022-11-20T13:01:55.317Z,17.92
2022-11-20T13:03:45.479Z,16.67
2022-11-20T13:05:22.813Z,17.38
2022-11-20T13:06:55.978Z,17.15
2022-11-20T13:08:37.000Z,16.10
2022-11-20T13:10:24.543Z,16.65
2022-11-20T13:12:44.553Z,15.85
2022-11-20T13:14:48.445Z,16.88
2022-11-20T13:16:55.188Z,17.08
2022-11-20T13:18:27.417Z,16.45
2022-11-20T13:19:59.873Z,16.77
2022-11-20T13:21:43.739Z,17.75
2022-11-20T13:23:28.754Z,15.70
2022-11-20T13:25:00.511Z,16.88
2022-11-20T13:26:32.904Z,18.55
2022-11-20T13:28:25.925Z,18.55
2022-11-20T13:30:13.388Z,16.52
2022-11-20T13:31:48.074Z,17.25
2022-11-20T13:33:31.676Z,16.15
2022-11-20T13:35:05.638Z,16.58
2022-11-20T13:36:37.802Z,18.67
2022-11-20T13:38:11.053Z,17.10
2022-11-20T13:39:42.831Z,15.75
2022-11-20T13:41:33.214Z,17.33
2022-11-20T13:43:29.721Z,15.55
2022-11-20T13:45:10.301Z,16.45
2022-11-20T13:46:44.996Z,16.17
2022-11-20T13:48:23.028Z,15.57
2022-11-20T13:49:56.739Z,13.80
2022-11-20T13:51:43.402Z,15.52
2022-11-20T13:53:39.737Z,15.43
2022-11-20T13:55:36.381Z,14.30
2022-11-20T13:57:11.040Z,16.65
2022-11-20T13:58:56.352Z,13.63
2022-11-20T14:00:28.228Z,15.82
2022-11-20T14:02:01.540Z,14.80
2022-11-20T14:04:04.582Z,14.70
2022-11-20T14:05:27.004Z,15.80
2022-11-20T14:06:59.600Z,14.48
2022-11-20T14:08:40.689Z,11.70
2022-11-20T14:10:31.651Z,14.93
2022-11-20T14:12:15.180Z,13.20
2022-11-20T14:13:57.700Z,14.95
2022-11-20T14:15:37.337Z,14.60
2022-11-20T14:18:51.362Z,16.73
2022-11-20T14:20:27.044Z,15.82
2022-11-20T14:22:09.618Z,15.18
2022-11-20T14:23:41.353Z,14.88
2022-11-20T14:25:13.048Z,14.68
2022-11-20T14:26:46.561Z,12.70
2022-11-20T14:28:28.903Z,12.90
2022-11-20T14:30:02.075Z,15.13
2022-11-20T14:31:33.973Z,14.50
2022-11-20T14:33:06.037Z,13.73
2022-11-20T14:34:41.644Z,14.13
2022-11-20T14:36:19.511Z,13.95
2022-11-20T14:37:55.461Z,14.83
2022-11-20T14:39:34.317Z,14.50
2022-11-20T14:41:16.027Z,14.43
2022-11-20T14:42:47.771Z,14.27
2022-11-20T14:44:23.806Z,14.65
2022-11-20T14:46:01.392Z,14.68
2022-11-20T14:47:34.018Z,14.93
2022-11-20T14:49:06.615Z,13.55
2022-11-20T14:50:39.558Z,14.70
2022-11-20T14:52:17.629Z,13.95
2022-11-20T14:53:49.495Z,14.68
2022-11-20T14:55:34.798Z,13.35
2022-11-20T14:57:06.576Z,13.82
2022-11-20T14:58:38.505Z,14.57
2022-11-20T15:00:12.971Z,14.13
2022-11-20T15:01:56.492Z,14.30
2022-11-20T15:03:39.544Z,15.57
2022-11-20T15:05:11.857Z,14.32
2022-11-20T15:06:58.453Z,15.10
2022-11-20T15:08:30.668Z,15.20
2022-11-20T15:10:11.406Z,14.52
2022-11-20T15:11:55.221Z,15.30
2022-11-20T15:13:30.211Z,16.83
2022-11-20T15:15:03.732Z,15.32
2022-11-20T15:16:35.573Z,16.92
2022-11-20T15:18:13.510Z,15.07
2022-11-20T15:19:45.500Z,15.32
2022-11-20T15:21:21.870Z,15.45
2022-11-20T15:22:53.629Z,14.80
2022-11-20T15:24:25.795Z,14.50
2022-11-20T15:25:57.915Z,13.52
2022-11-20T15:27:30.139Z,14.23
2022-11-20T15:29:01.917Z,13.63
2022-11-20T15:30:33.849Z,13.00
2022-11-20T15:32:09.201Z,14.25
2022-11-20T15:33:45.060Z,13.65
2022-11-20T15:35:17.549Z,14.35
2022-11-20T15:36:49.524Z,13.98
2022-11-20T15:38:21.337Z,13.75
2022-11-20T15:39:53.185Z,13.10
2022-11-20T15:41:24.908Z,13.07
2022-11-20T15:43:12.619Z,12.90
2022-11-20T15:44:45.261Z,13.27
2022-11-20T15:46:22.390Z,13.55
2022-11-20T15:47:54.150Z,13.18
2022-11-20T15:49:26.569Z,12.27
2022-11-20T15:51:25.913Z,13.38
2022-11-20T15:52:57.673Z,11.32
2022-11-20T15:54:29.596Z,12.70
2022-11-20T15:56:01.755Z,13.23
2022-11-20T15:57:33.464Z,12.68
2022-11-20T15:59:05.508Z,13.15
2022-11-20T16:00:37.345Z,14.13
2022-11-20T16:02:18.692Z,13.07
2022-11-20T16:03:51.012Z,13.10
2022-11-20T16:05:24.308Z,14.10
2022-11-20T16:06:56.370Z,13.88
2022-11-20T16:08:28.100Z,13.05
2022-11-20T16:09:59.860Z,13.55
2022-11-20T16:11:31.611Z,12.60
2022-11-20T16:13:22.509Z,14.18
2022-11-20T16:15:13.900Z,13.07
2022-11-20T16:16:45.856Z,13.60
2022-11-20T16:18:20.045Z,13.82
2022-11-20T16:19:51.795Z,13.35
2022-11-20T16:21:32.257Z,14.73
2022-11-20T16:23:04.652Z,13.70
2022-11-20T16:24:36.406Z,13.20
2022-11-20T16:26:12.937Z,13.75
2022-11-20T16:27:44.685Z,13.38
2022-11-20T16:29:16.533Z,12.48
2022-11-20T16:30:48.323Z,12.27
2022-11-20T16:32:20.107Z,13.65
2022-11-20T16:33:57.257Z,12.35
2022-11-20T16:35:33.043Z,13.05
2022-11-20T16:37:05.258Z,15.25
2022-11-20T16:38:37.281Z,14.00
2022-11-20T16:40:09.741Z,15.20
2022-11-20T16:41:41.524Z,12.50
2022-11-20T16:43:14.870Z,13.20
2022-11-20T16:44:47.638Z,13.10
2022-11-20T16:46:22.282Z,13.15
2022-11-20T16:47:54.181Z,13.65
2022-11-20T16:49:26.241Z,12.95
2022-11-20T16:50:57.995Z,15.57
2022-11-20T16:52:31.130Z,13.88
2022-11-20T16:54:04.663Z,15.25
2022-11-20T16:55:36.399Z,14.07
2022-11-20T16:57:08.158Z,15.52
2022-11-20T16:58:40.060Z,15.73
2022-11-20T17:00:12.503Z,13.88
2022-11-20T17:01:44.313Z,14.75
2022-11-20T17:03:17.806Z,15.40
2022-11-20T17:04:49.571Z,16.25
2022-11-20T17:06:23.846Z,15.20
2022-11-20T17:07:55.880Z,15.48
2022-11-20T17:09:27.667Z,14.88
2022-11-20T17:11:05.720Z,15.77
2022-11-20T17:12:37.494Z,18.00
2022-11-20T17:14:11.491Z,16.13
2022-11-20T17:15:43.246Z,16.15
2022-11-20T17:17:15.040Z,15.02
2022-11-20T17:18:47.438Z,14.57
2022-11-20T17:20:19.247Z,16.60
2022-11-20T17:21:51.167Z,14.82
2022-11-20T17:23:22.921Z,14.75
2022-11-20T17:24:54.705Z,15.35
2022-11-20T17:26:28.365Z,14.90
2022-11-20T17:28:00.114Z,14.77
2022-11-20T17:29:31.957Z,15.32
2022-11-20T17:31:06.577Z,14.32
2022-11-20T17:32:38.412Z,16.33
2022-11-20T17:34:15.345Z,14.10
2022-11-20T17:35:47.093Z,14.52
2022-11-20T17:37:18.938Z,14.88
2022-11-20T17:38:50.716Z,14.73
2022-11-20T17:40:27.172Z,15.07
2022-11-20T17:42:17.899Z,14.10
2022-11-20T17:43:50.187Z,17.88
2022-11-20T17:45:21.953Z,16.52
2022-11-20T17:46:53.660Z,15.63
2022-11-20T17:48:25.444Z,14.50
2022-11-20T17:49:57.527Z,13.07
2022-11-20T17:51:32.350Z,15.15
2022-11-20T17:53:04.241Z,14.63
2022-11-20T17:54:35.976Z,15.68
2022-11-20T17:56:26.891Z,15.80
2022-11-20T17:58:02.909Z,11.07
2022-11-20T17:59:35.731Z,14.98
2022-11-20T18:01:09.049Z,15.70
2022-11-20T18:02:40.876Z,15.40
2022-11-20T18:04:13.064Z,13.95
2022-11-20T18:05:44.792Z,14.38
2022-11-20T18:07:16.644Z,15.55
2022-11-20T18:08:49.352Z,15.70
2022-11-20T18:10:21.130Z,15.93
2022-11-20T18:11:52.921Z,15.27
2022-11-20T18:13:47.821Z,15.05
2022-11-20T18:15:19.833Z,16.35
2022-11-20T18:16:57.075Z,16.70
2022-11-20T18:18:28.817Z,16.27
2022-11-20T18:20:27.887Z,14.57
2022-11-20T18:21:52.642Z,17.42
2022-11-20T18:23:24.437Z,16.48
2022-11-20T18:24:56.247Z,16.58
2022-11-20T18:26:28.106Z,15.10
2022-11-20T18:27:59.832Z,17.88
2022-11-20T18:29:31.978Z,16.48
2022-11-20T18:31:08.654Z,15.30
2022-11-20T18:32:40.418Z,14.90
2022-11-20T18:34:14.193Z,14.80
2022-11-20T18:35:45.987Z,14.55
2022-11-20T18:37:19.164Z,15.35
2022-11-20T18:38:53.642Z,15.27
2022-11-20T18:40:25.405Z,15.82
2022-11-20T18:42:15.551Z,15.50
2022-11-20T18:44:05.985Z,15.32
2022-11-20T18:45:37.717Z,18.40
2022-11-20T18:47:14.672Z,16.42
2022-11-20T18:48:46.968Z,15.25
2022-11-20T18:50:19.305Z,16.33
2022-11-20T18:51:51.091Z,16.52
2022-11-20T18:53:22.871Z,15.93
2022-11-20T18:54:55.752Z,16.80
2022-11-20T18:56:27.549Z,16.58
2022-11-20T18:57:59.269Z,16.10
2022-11-20T18:59:31.703Z,16.38
2022-11-20T19:01:07.705Z,17.15
2022-11-20T19:02:42.776Z,16.40
2022-11-20T19:04:17.287Z,18.38
2022-11-20T19:05:49.034Z,17.70
2022-11-20T19:07:21.149Z,19.25
2022-11-20T19:08:53.645Z,17.38
2022-11-20T19:10:27.203Z,20.05
2022-11-20T19:11:59.286Z,18.77
2022-11-20T19:13:32.831Z,18.60
2022-11-20T19:15:05.412Z,18.30
2022-11-20T19:16:37.318Z,17.52
2022-11-20T19:18:10.029Z,19.92
2022-11-20T19:19:42.329Z,19.70
2022-11-20T19:21:19.647Z,17.33
2022-11-20T19:22:51.498Z,17.15
2022-11-20T19:24:23.337Z,18.50
2022-11-20T19:25:59.373Z,17.45
2022-11-20T19:27:31.187Z,17.52
2022-11-20T19:29:05.099Z,19.33
2022-11-20T19:30:36.905Z,18.00
2022-11-20T19:32:08.677Z,17.05
2022-11-20T19:33:41.301Z,16.92
2022-11-20T19:35:13.476Z,17.60
2022-11-20T19:36:45.583Z,16.60
2022-11-20T19:38:17.317Z,14.90
2022-11-20T19:39:49.040Z,16.45
2022-11-20T19:41:29.057Z,17.30
2022-11-20T19:43:00.941Z,17.52
2022-11-20T19:44:33.177Z,17.27
2022-11-20T19:46:05.269Z,15.93
2022-11-20T19:48:06.160Z,16.38
2022-11-20T19:49:28.805Z,16.02
2022-11-20T19:51:18.854Z,16.40
2022-11-20T19:52:55.708Z,15.32
2022-11-20T19:54:30.198Z,15.57
2022-11-20T19:56:02.790Z,16.65
2022-11-20T19:57:34.486Z,14.90
2022-11-20T19:59:06.225Z,13.85
2022-11-20T20:00:37.936Z,14.40
2022-11-20T20:02:11.276Z,16.00
2022-11-20T20:03:44.907Z,16.95
2022-11-20T20:05:16.733Z,15.85
2022-11-20T20:06:48.518Z,17.90
2022-11-20T20:08:20.280Z,17.05
2022-11-20T20:09:52.007Z,15.98
2022-11-20T20:11:25.899Z,16.20
2022-11-20T20:12:57.715Z,16.90
2022-11-20T20:14:29.507Z,15.35
2022-11-20T20:16:01.259Z,13.88
2022-11-20T20:17:33.017Z,16.02
2022-11-20T20:19:05.630Z,17.65
2022-11-20T20:20:37.337Z,18.48
2022-11-20T20:22:09.040Z,19.25
2022-11-20T20:23:41.707Z,18.10
2022-11-20T20:25:13.490Z,16.45
2022-11-20T20:26:45.338Z,16.65
2022-11-20T20:28:17.074Z,15.95
2022-11-20T20:29:48.774Z,18.67
2022-11-20T20:31:26.574Z,17.23
2022-11-20T20:32:58.310Z,17.88
2022-11-20T20:34:32.084Z,16.35
2022-11-20T20:36:08.620Z,18.42